サンティアゴ の空港の天気 - METARとTAF

アルトゥーロ・メリノ・ベニテス国際空港(サンティアゴ) ( SCEL / SCL ) - チリ サンティアゴ
飛行場実況気象(Metar)
観測時間10/28 14:00 CLST (10/28 17:00 UTC)
風向・風速南 4m/s
視程10km以上
天気現象
なし
気温19℃
湿度35%
気圧1019hPa
METARSCEL 281700Z 18007KT 110V220 CAVOK 19/03 Q1019 NOSIG
過去の天気等 Google飛行場航空写真 Wunderground天気予報

過去48時間のMETAR

飛行場予報(TAF)
発表時間: 10/28 07:05 CLST (10/28 10:05 UTC)
予報対象時間: 28日9時 CLST ~ 29日9時 CLST
風向・風速南南西 3m/s
視程10km以上
少しの雲 雲底高度 370m
全天の4割程度の雲 雲底高度 910m
28日10時 CLST ~ 28日12時 CLST に徐々に
視程10km以上
なし
28日16時 CLST ~ 28日18時 CLST に徐々に
風向・風速南南西 6m/s
28日22時 CLST ~ 28日24時 CLST に徐々に
風向・風速南南東 3m/s
29日2時 CLST ~ 29日4時 CLST に徐々に
風向・風速不定 1m/s
TAF SCEL 281005Z 2812/2912 21006KT 9999 FEW012 SCT030 TX24/2819Z TN09/2911Z
BECMG 2813/2815 CAVOK
BECMG 2819/2821 21012KT
BECMG 2901/2903 15006KT
BECMG 2905/2907 VRB02KT